createdAt,value
2023-12-04T11:19:57.934Z,1808.00
2023-12-04T11:20:58.954Z,1836.00
2023-12-04T11:21:59.009Z,1868.00
2023-12-04T11:22:59.060Z,1896.00
2023-12-04T11:23:59.164Z,1928.00
2023-12-04T11:24:59.232Z,1948.00
2023-12-04T11:25:59.298Z,1964.00
2023-12-04T11:26:59.374Z,1964.00
2023-12-04T11:27:59.441Z,1960.00
2023-12-04T11:28:59.548Z,1956.00
2023-12-04T11:29:59.601Z,1952.00
2023-12-04T11:30:59.691Z,1948.00
2023-12-04T11:31:59.775Z,1940.00
2023-12-04T11:32:59.884Z,1920.00
2023-12-04T11:34:00.028Z,1904.00
2023-12-04T11:35:00.011Z,2032.00
2023-12-04T11:36:00.092Z,2040.00
2023-12-04T11:37:00.229Z,2044.00
2023-12-04T11:38:00.240Z,2056.00
2023-12-04T11:39:00.344Z,2100.00
2023-12-04T11:40:00.408Z,2180.00
2023-12-04T11:41:00.476Z,2284.00
2023-12-04T11:42:00.604Z,2392.00
2023-12-04T11:43:00.696Z,2480.00
2023-12-04T11:44:00.754Z,2524.00
2023-12-04T11:45:00.845Z,2544.00
2023-12-04T11:46:00.913Z,2548.00
2023-12-04T11:47:02.966Z,2528.00
2023-12-04T11:48:01.155Z,2520.00
2023-12-04T11:49:01.244Z,2504.00
2023-12-04T11:50:01.242Z,2484.00
2023-12-04T11:51:01.295Z,2460.00
2023-12-04T11:52:01.361Z,2408.00
2023-12-04T11:53:03.293Z,2364.00
2023-12-04T11:54:01.539Z,2304.00
2023-12-04T11:55:02.003Z,2256.00
2023-12-04T11:56:01.712Z,2208.00
2023-12-04T11:57:01.853Z,2176.00
2023-12-04T11:58:01.884Z,2152.00
2023-12-04T11:59:03.892Z,2120.00
2023-12-04T12:00:02.002Z,2140.00
2023-12-04T12:01:02.094Z,2148.00
2023-12-04T12:02:02.295Z,2164.00
2023-12-04T12:03:16.797Z,2184.00
2023-12-04T12:04:02.596Z,2208.00
2023-12-04T12:05:02.516Z,2232.00
2023-12-04T12:06:02.692Z,2260.00
2023-12-04T12:07:02.632Z,2316.00
2023-12-04T12:08:02.632Z,2384.00
2023-12-04T12:09:02.765Z,2448.00
2023-12-04T12:10:02.926Z,2488.00
2023-12-04T12:11:02.916Z,2512.00
2023-12-04T12:12:03.012Z,2520.00
2023-12-04T12:13:03.109Z,2520.00
2023-12-04T12:14:03.158Z,2512.00
2023-12-04T12:15:03.281Z,2500.00
2023-12-04T12:16:03.348Z,2480.00
2023-12-04T12:17:03.423Z,2460.00
2023-12-04T12:18:03.644Z,2420.00
2023-12-04T12:19:03.701Z,2376.00
2023-12-04T12:20:03.663Z,2316.00
2023-12-04T12:21:03.836Z,2244.00
2023-12-04T12:22:05.459Z,2176.00
2023-12-04T12:23:03.900Z,2108.00
2023-12-04T12:24:04.055Z,2052.00
2023-12-04T12:25:04.110Z,2004.00
2023-12-04T12:26:05.749Z,1972.00
2023-12-04T12:27:04.249Z,1960.00
2023-12-04T12:28:04.332Z,1956.00
2023-12-04T12:29:04.406Z,1972.00
2023-12-04T12:30:04.576Z,1988.00
2023-12-04T12:31:04.591Z,2012.00
